Time;durP1;ratioP1;P1;durP2;ratioP2;P2;SDS_P1;SDS_P2;PMS_P1;PMS_P2;Temp;Humidity;BMP_temperature;BMP_pressure;BME280_temperature;BME280_humidity;BME280_pressure;Samples;Min_cycle;Max_cycle;Signal;HPM_P1;HPM_P2
2022/01/23 00:00:51;;;;;;;32.50;19.00;;;5.40;99.90;;;;;;5060251;28;20449;-47
2022/01/23 00:03:19;;;;;;;23.13;14.63;;;5.40;99.90;;;;;;5058966;28;20838;-47
2022/01/23 00:05:47;;;;;;;25.67;16.23;;;5.30;99.90;;;;;;5057431;28;20228;-48
2022/01/23 00:08:15;;;;;;;25.77;16.20;;;5.30;99.90;;;;;;5060235;28;20506;-48
2022/01/23 00:10:41;;;;;;;28.40;17.03;;;5.30;99.90;;;;;;5060393;28;21138;-50
2022/01/23 00:13:27;;;;;;;23.23;15.10;;;5.30;99.90;;;;;;5044992;28;20484;-50
2022/01/23 00:18:37;;;;;;;28.40;16.67;;;5.40;99.90;;;;;;5059721;28;20456;-48
2022/01/23 00:21:03;;;;;;;27.00;15.87;;;5.30;99.90;;;;;;5062810;28;20501;-49
2022/01/23 00:31:50;;;;;;;28.23;16.07;;;5.30;99.90;;;;;;5063611;28;20563;-51
2022/01/23 00:34:17;;;;;;;25.53;14.93;;;5.30;99.90;;;;;;5056425;28;20932;-48
2022/01/23 00:36:42;;;;;;;24.80;17.33;;;5.40;99.90;;;;;;5066051;28;20172;-48
2022/01/23 00:39:08;;;;;;;27.50;16.07;;;5.40;99.90;;;;;;5062476;28;20465;-48
2022/01/23 00:41:34;;;;;;;26.93;16.23;;;5.30;99.90;;;;;;5063476;28;20195;-47
2022/01/23 00:44:00;;;;;;;26.10;16.97;;;5.30;99.90;;;;;;5062432;28;20191;-47
2022/01/23 00:46:33;;;;;;;25.70;15.53;;;5.30;99.90;;;;;;5063084;28;20191;-52
2022/01/23 00:51:31;;;;;;;33.33;15.53;;;5.30;99.90;;;;;;5059908;28;20449;-49
2022/01/23 00:53:58;;;;;;;28.90;17.23;;;5.30;99.90;;;;;;5061850;28;20434;-47
2022/01/23 00:56:24;;;;;;;25.40;15.57;;;5.30;99.90;;;;;;5063434;28;20425;-49
2022/01/23 00:58:50;;;;;;;28.77;15.00;;;5.30;99.90;;;;;;5061137;28;20446;-47
2022/01/23 01:01:16;;;;;;;24.50;15.10;;;5.30;99.90;;;;;;5065427;28;20425;-49
2022/01/23 01:03:42;;;;;;;26.93;16.73;;;5.30;99.90;;;;;;5060331;28;20453;-49
2022/01/23 01:06:08;;;;;;;23.60;15.73;;;5.30;99.90;;;;;;5064312;28;20270;-48
2022/01/23 01:08:34;;;;;;;25.13;16.07;;;5.30;99.90;;;;;;5064362;28;20423;-48
2022/01/23 01:14:20;;;;;;;30.50;16.77;;;5.30;99.90;;;;;;5063220;28;20865;-47
2022/01/23 01:35:50;;;;;;;26.20;16.10;;;5.40;99.90;;;;;;5060751;28;20229;-47
2022/01/23 01:38:15;;;;;;;26.13;15.70;;;5.40;99.90;;;;;;5062782;28;20785;-47
2022/01/23 01:40:41;;;;;;;24.20;15.60;;;5.40;99.90;;;;;;5045714;28;20450;-50
2022/01/23 01:43:07;;;;;;;25.70;17.00;;;5.30;99.90;;;;;;5050788;28;20183;-49
2022/01/23 01:45:34;;;;;;;25.27;16.20;;;5.30;99.90;;;;;;5063801;28;20194;-47
2022/01/23 01:48:01;;;;;;;32.43;18.93;;;5.40;99.90;;;;;;5051875;28;20186;-47
2022/01/23 01:50:29;;;;;;;23.90;15.40;;;5.50;99.90;;;;;;5060940;28;20475;-50
2022/01/23 01:52:55;;;;;;;27.00;16.10;;;5.40;99.90;;;;;;5044091;28;20530;-50
2022/01/23 01:55:28;;;;;;;24.97;16.00;;;5.50;99.90;;;;;;5062112;28;20467;-48
2022/01/23 01:58:01;;;;;;;24.90;15.43;;;5.60;99.90;;;;;;5058645;28;20190;-50
2022/01/23 02:10:50;;;;;;;26.80;15.37;;;5.60;99.90;;;;;;5060148;28;20528;-49
2022/01/23 02:13:21;;;;;;;25.23;16.63;;;5.60;99.90;;;;;;5059444;28;21069;-49
2022/01/23 02:56:47;;;;;;;22.10;13.63;;;5.50;99.90;;;;;;5059078;28;20437;-49
2022/01/23 02:59:22;;;;;;;23.20;14.00;;;5.60;99.90;;;;;;5058038;28;20851;-48
2022/01/23 03:02:13;;;;;;;22.60;14.93;;;5.60;99.90;;;;;;5064414;28;20448;-47
2022/01/23 03:04:37;;;;;;;23.53;14.07;;;5.60;99.90;;;;;;5059549;28;20425;-48
2022/01/23 03:10:19;;;;;;;21.10;13.37;;;5.60;99.90;;;;;;5061170;28;20824;-49
2022/01/23 03:15:29;;;;;;;19.63;12.47;;;5.70;99.90;;;;;;5058030;28;20445;-49
2022/01/23 03:26:25;;;;;;;19.20;12.40;;;5.80;99.90;;;;;;5059917;28;20416;-49
2022/01/23 03:29:04;;;;;;;20.30;12.87;;;5.80;99.90;;;;;;5057756;28;20456;-51
2022/01/23 03:31:43;;;;;;;18.53;12.60;;;5.70;99.90;;;;;;5061492;28;20507;-47
2022/01/23 03:34:09;;;;;;;21.63;13.40;;;5.80;99.90;;;;;;5062720;28;21004;-50
2022/01/23 03:36:36;;;;;;;20.63;13.73;;;5.80;99.90;;;;;;5059072;28;20429;-49
2022/01/23 03:39:06;;;;;;;21.70;13.90;;;5.90;99.90;;;;;;5059108;28;20822;-50
2022/01/23 03:41:33;;;;;;;19.33;13.40;;;5.90;99.90;;;;;;5061765;28;20421;-48
2022/01/23 03:44:00;;;;;;;23.07;13.93;;;5.90;99.90;;;;;;5057548;28;20441;-47
2022/01/23 03:46:49;;;;;;;23.53;12.80;;;5.90;99.90;;;;;;5048393;28;20517;-49
2022/01/23 03:49:31;;;;;;;19.00;14.00;;;5.90;99.90;;;;;;5060892;28;20528;-48
2022/01/23 03:52:06;;;;;;;18.90;12.47;;;6.00;99.90;;;;;;5060695;28;20465;-49
2022/01/23 03:54:33;;;;;;;19.80;13.00;;;5.80;99.90;;;;;;5060856;28;20474;-47
2022/01/23 03:57:00;;;;;;;24.20;12.70;;;5.80;99.90;;;;;;5064260;28;20774;-47
2022/01/23 03:59:27;;;;;;;22.90;14.60;;;5.90;99.90;;;;;;5064860;28;20444;-50
2022/01/23 04:01:53;;;;;;;19.13;12.77;;;5.90;99.90;;;;;;5064666;28;20420;-47
2022/01/23 04:04:39;;;;;;;20.07;13.07;;;5.90;99.90;;;;;;5049609;28;20422;-48
2022/01/23 04:07:15;;;;;;;26.17;14.70;;;6.00;99.90;;;;;;5067042;28;20734;-48
2022/01/23 04:09:42;;;;;;;20.47;13.20;;;6.00;99.90;;;;;;5065096;28;20820;-48
2022/01/23 04:12:12;;;;;;;19.07;12.77;;;5.90;99.90;;;;;;5065265;28;20492;-47
2022/01/23 04:14:47;;;;;;;24.07;12.53;;;5.90;99.90;;;;;;5062402;28;20437;-47
2022/01/23 04:17:56;;;;;;;24.50;15.07;;;6.00;99.90;;;;;;5046567;28;20949;-46
2022/01/23 04:33:42;;;;;;;21.50;14.00;;;5.80;99.90;;;;;;5059667;28;20472;-46
2022/01/23 05:00:47;;;;;;;23.50;13.93;;;5.70;99.90;;;;;;5063104;28;20478;-50
2022/01/23 05:05:41;;;;;;;24.53;13.13;;;5.90;99.90;;;;;;5064678;28;20425;-51
2022/01/23 05:08:09;;;;;;;23.30;14.10;;;5.90;99.90;;;;;;5047129;28;20499;-51
2022/01/23 05:10:34;;;;;;;19.60;13.40;;;5.90;99.90;;;;;;5065220;28;20219;-49
2022/01/23 05:13:01;;;;;;;23.10;14.87;;;5.90;99.90;;;;;;5063877;28;20552;-48
2022/01/23 05:15:27;;;;;;;22.07;13.80;;;5.80;99.90;;;;;;5060434;28;20179;-52
2022/01/23 05:17:53;;;;;;;20.70;13.10;;;5.70;99.90;;;;;;5064748;28;20437;-48
2022/01/23 05:20:20;;;;;;;20.03;13.10;;;5.80;99.90;;;;;;5062284;28;20203;-48
2022/01/23 05:22:49;;;;;;;27.00;15.43;;;5.80;99.90;;;;;;5062623;28;20441;-47
2022/01/23 05:25:22;;;;;;;21.30;13.87;;;5.80;99.90;;;;;;5044374;28;20434;-50
2022/01/23 05:27:53;;;;;;;21.70;13.53;;;5.90;99.90;;;;;;5060933;28;20436;-49
2022/01/23 05:30:19;;;;;;;18.90;12.27;;;5.90;99.90;;;;;;5064370;28;20484;-47
2022/01/23 05:32:45;;;;;;;21.10;14.30;;;5.90;99.90;;;;;;5060014;28;20832;-48
2022/01/23 05:35:13;;;;;;;18.67;13.83;;;5.80;99.90;;;;;;5053019;28;20434;-50
2022/01/23 05:37:39;;;;;;;21.90;14.57;;;5.80;99.90;;;;;;5061842;28;20478;-49
2022/01/23 05:40:07;;;;;;;22.53;13.93;;;5.70;99.90;;;;;;5062326;28;20861;-49
2022/01/23 05:42:33;;;;;;;19.20;12.67;;;5.80;99.90;;;;;;5064095;28;20418;-51
2022/01/23 05:44:58;;;;;;;20.87;14.30;;;5.90;99.90;;;;;;5058389;28;20441;-51
2022/01/23 05:47:24;;;;;;;22.30;13.60;;;6.00;99.90;;;;;;5063444;28;20209;-47
2022/01/23 05:49:50;;;;;;;21.17;13.00;;;6.00;99.90;;;;;;5061855;28;20295;-46
2022/01/23 05:52:15;;;;;;;30.73;14.93;;;6.00;99.90;;;;;;5060461;28;20200;-47
2022/01/23 05:54:41;;;;;;;21.40;14.37;;;6.00;99.90;;;;;;5061059;28;20176;-49
2022/01/23 05:57:07;;;;;;;23.63;13.80;;;6.10;99.90;;;;;;5062499;28;20202;-48
2022/01/23 05:59:33;;;;;;;23.67;13.43;;;6.10;99.90;;;;;;5063871;28;20695;-47
2022/01/23 06:01:59;;;;;;;20.90;13.97;;;6.20;99.90;;;;;;5059332;28;20850;-51
2022/01/23 06:04:25;;;;;;;20.53;12.77;;;6.20;99.90;;;;;;5043966;28;20429;-49
2022/01/23 06:06:52;;;;;;;19.90;13.27;;;6.20;99.90;;;;;;5063479;28;20171;-48
2022/01/23 06:09:20;;;;;;;22.83;14.20;;;6.30;99.90;;;;;;5059046;28;20532;-47
2022/01/23 06:11:46;;;;;;;25.63;14.53;;;6.20;99.90;;;;;;5065303;28;20490;-48
2022/01/23 06:14:12;;;;;;;19.20;14.60;;;6.20;99.90;;;;;;5061173;28;20425;-49
2022/01/23 06:16:39;;;;;;;21.33;12.70;;;6.20;99.90;;;;;;5061739;28;20429;-48
2022/01/23 06:19:05;;;;;;;19.43;12.50;;;6.20;99.90;;;;;;5058837;28;20262;-48
2022/01/23 06:21:31;;;;;;;28.00;12.40;;;6.20;99.90;;;;;;5060330;28;20492;-47
2022/01/23 06:24:08;;;;;;;18.00;12.10;;;6.20;99.90;;;;;;5060640;28;20446;-46
2022/01/23 06:26:48;;;;;;;22.80;13.87;;;6.10;99.90;;;;;;5058833;28;20437;-49
2022/01/23 06:29:16;;;;;;;22.53;13.73;;;6.00;99.90;;;;;;5062239;28;20449;-49
2022/01/23 06:31:43;;;;;;;21.43;13.17;;;6.10;99.90;;;;;;5063280;28;20421;-51
2022/01/23 06:34:10;;;;;;;20.10;13.00;;;6.10;99.90;;;;;;5058673;28;20469;-50
2022/01/23 06:36:37;;;;;;;19.00;13.07;;;6.10;99.90;;;;;;5063775;28;20532;-48
2022/01/23 06:39:05;;;;;;;20.30;12.70;;;6.10;99.90;;;;;;5042129;28;20457;-50
2022/01/23 06:41:31;;;;;;;23.63;14.40;;;6.40;99.90;;;;;;5063572;28;20430;-51
2022/01/23 06:43:57;;;;;;;23.03;14.93;;;6.50;99.90;;;;;;5060078;28;20491;-50
2022/01/23 06:46:23;;;;;;;21.80;13.67;;;6.50;99.90;;;;;;5059774;28;20571;-52
2022/01/23 06:48:48;;;;;;;23.40;13.67;;;6.50;99.90;;;;;;5064000;28;20203;-52
2022/01/23 06:51:14;;;;;;;19.60;13.60;;;6.50;99.90;;;;;;5059992;28;20430;-47
2022/01/23 06:53:39;;;;;;;20.23;12.80;;;6.50;99.90;;;;;;5062718;28;20205;-48
2022/01/23 06:56:05;;;;;;;23.60;13.80;;;6.50;99.90;;;;;;5060229;28;20198;-49
2022/01/23 06:58:31;;;;;;;24.00;15.50;;;6.60;99.90;;;;;;5060996;28;20183;-47
2022/01/23 07:00:56;;;;;;;28.17;13.70;;;6.60;99.90;;;;;;5060180;28;20190;-49
2022/01/23 07:03:22;;;;;;;22.77;14.13;;;6.50;99.90;;;;;;5040483;28;20202;-47
2022/01/23 07:05:47;;;;;;;22.33;14.47;;;6.50;99.90;;;;;;5063261;28;20515;-49
2022/01/23 07:08:13;;;;;;;28.27;13.90;;;6.40;99.90;;;;;;5059099;28;20361;-48
2022/01/23 07:10:39;;;;;;;20.20;14.17;;;6.30;99.90;;;;;;5063229;28;20269;-50
2022/01/23 07:13:04;;;;;;;21.00;14.60;;;6.40;99.90;;;;;;5058365;28;20199;-48
2022/01/23 07:15:30;;;;;;;22.67;14.83;;;6.40;99.90;;;;;;5055805;28;20593;-50
2022/01/23 07:17:55;;;;;;;26.43;16.17;;;6.30;99.90;;;;;;5061924;28;20175;-48
2022/01/23 07:20:21;;;;;;;27.03;15.77;;;6.40;99.90;;;;;;5058232;28;20204;-51
2022/01/23 07:22:47;;;;;;;20.67;14.17;;;6.30;99.90;;;;;;5061444;28;20493;-51
2022/01/23 07:25:12;;;;;;;21.20;14.10;;;6.10;99.90;;;;;;5058793;28;20266;-51
2022/01/23 07:27:45;;;;;;;23.50;15.67;;;6.20;99.90;;;;;;5045467;28;20302;-52
2022/01/23 07:30:24;;;;;;;26.63;14.90;;;6.20;99.90;;;;;;5062194;28;20195;-48
2022/01/23 07:32:49;;;;;;;24.53;15.27;;;6.10;99.90;;;;;;5058271;28;20468;-47
2022/01/23 07:35:15;;;;;;;24.43;14.60;;;6.10;99.90;;;;;;5058691;28;20936;-48
2022/01/23 07:37:41;;;;;;;27.00;17.30;;;6.30;99.90;;;;;;5059624;28;20229;-48
2022/01/23 07:40:07;;;;;;;25.20;15.47;;;6.40;99.90;;;;;;5061106;28;20214;-47
2022/01/23 07:42:33;;;;;;;24.40;17.37;;;6.50;99.90;;;;;;5059776;28;20762;-48
2022/01/23 07:44:59;;;;;;;24.83;16.20;;;6.40;99.90;;;;;;5055180;28;20486;-47
2022/01/23 07:47:24;;;;;;;24.93;15.70;;;6.20;99.90;;;;;;5062265;28;20903;-47
2022/01/23 07:49:51;;;;;;;24.80;16.40;;;6.30;99.90;;;;;;5057294;28;20209;-47
2022/01/23 07:52:17;;;;;;;22.60;16.20;;;6.40;99.90;;;;;;5061084;28;20309;-47
2022/01/23 07:54:43;;;;;;;25.33;15.97;;;6.50;99.90;;;;;;5060234;28;20452;-48
2022/01/23 07:57:09;;;;;;;22.07;15.20;;;6.30;99.90;;;;;;5041235;28;20414;-50
2022/01/23 07:59:34;;;;;;;25.80;16.30;;;6.40;99.90;;;;;;5025152;28;1069734;-51
2022/01/23 08:02:01;;;;;;;24.00;16.50;;;6.50;99.90;;;;;;5060044;28;20187;-47
2022/01/23 08:04:26;;;;;;;23.70;16.70;;;6.50;99.90;;;;;;5044208;28;20593;-48
2022/01/23 08:07:08;;;;;;;28.30;18.73;;;6.60;99.90;;;;;;5045652;28;20860;-47
2022/01/23 08:09:33;;;;;;;29.17;17.00;;;6.70;99.90;;;;;;5044214;28;20214;-49
2022/01/23 08:12:00;;;;;;;27.00;17.23;;;6.40;99.90;;;;;;5062221;28;20445;-49
2022/01/23 08:14:25;;;;;;;28.70;17.70;;;6.30;99.90;;;;;;5056696;28;20186;-48
2022/01/23 08:16:51;;;;;;;29.03;17.23;;;6.60;99.90;;;;;;5060844;28;20803;-51
2022/01/23 08:19:16;;;;;;;23.90;15.60;;;6.60;99.90;;;;;;5061071;28;20220;-49
2022/01/23 08:21:42;;;;;;;28.30;15.70;;;6.50;99.90;;;;;;5057326;28;20559;-51
2022/01/23 08:24:08;;;;;;;27.27;19.00;;;6.40;99.90;;;;;;5060793;28;20179;-49
2022/01/23 08:26:34;;;;;;;27.80;16.50;;;6.50;99.90;;;;;;5056860;28;20221;-53
2022/01/23 08:29:00;;;;;;;27.53;16.53;;;6.70;99.90;;;;;;5060426;28;20569;-50
2022/01/23 08:31:26;;;;;;;23.40;15.60;;;6.70;99.90;;;;;;5057690;28;20429;-51
2022/01/23 08:33:53;;;;;;;24.07;16.40;;;6.50;99.90;;;;;;5058310;28;20479;-48
2022/01/23 08:36:19;;;;;;;22.93;14.80;;;6.50;99.90;;;;;;5060474;28;20211;-52
2022/01/23 08:38:44;;;;;;;26.10;15.83;;;6.60;99.90;;;;;;5055221;28;21008;-50
2022/01/23 08:43:48;;;;;;;23.43;14.27;;;6.90;99.90;;;;;;5060172;28;20599;-49
2022/01/23 08:46:14;;;;;;;25.00;15.90;;;6.90;99.90;;;;;;5047142;28;20437;-50
2022/01/23 08:48:41;;;;;;;20.80;15.63;;;7.00;99.90;;;;;;5064886;28;20444;-48
2022/01/23 08:51:07;;;;;;;22.50;14.63;;;7.10;99.90;;;;;;5063220;28;21077;-52
2022/01/23 08:53:33;;;;;;;23.27;14.30;;;7.20;99.90;;;;;;5062104;28;20468;-48
2022/01/23 08:55:59;;;;;;;21.57;15.97;;;7.10;99.90;;;;;;5061319;28;20436;-50
2022/01/23 08:58:25;;;;;;;25.83;16.93;;;7.00;99.90;;;;;;5066060;28;20262;-50
2022/01/23 09:00:51;;;;;;;27.27;16.53;;;7.10;99.90;;;;;;5058685;28;20537;-48
2022/01/23 09:03:16;;;;;;;22.50;15.17;;;6.90;99.90;;;;;;5061858;28;20496;-50
2022/01/23 09:05:42;;;;;;;23.10;16.47;;;6.70;99.90;;;;;;5064311;28;20183;-48
2022/01/23 09:08:08;;;;;;;26.40;16.00;;;6.60;99.90;;;;;;5044051;28;20210;-48
2022/01/23 09:10:41;;;;;;;21.30;14.50;;;6.70;99.90;;;;;;5065540;28;20229;-49
2022/01/23 09:13:14;;;;;;;24.97;17.53;;;6.70;99.90;;;;;;5061115;28;20736;-50
2022/01/23 09:15:39;;;;;;;22.90;16.57;;;6.50;99.90;;;;;;5061512;28;20475;-47
2022/01/23 09:18:05;;;;;;;25.93;16.70;;;6.40;99.90;;;;;;5065345;28;20422;-48
2022/01/23 09:20:31;;;;;;;24.63;16.30;;;6.70;99.90;;;;;;5060809;28;20288;-51
2022/01/23 09:22:56;;;;;;;26.20;17.03;;;6.90;99.90;;;;;;5065835;28;20203;-48
2022/01/23 09:25:22;;;;;;;32.37;18.77;;;6.90;99.90;;;;;;5062403;28;20187;-49
2022/01/23 09:27:48;;;;;;;24.10;15.77;;;7.00;99.90;;;;;;5063471;28;20202;-47
2022/01/23 09:30:19;;;;;;;24.87;15.47;;;7.00;99.90;;;;;;5060244;28;20249;-47
2022/01/23 09:32:46;;;;;;;25.40;16.37;;;7.00;99.90;;;;;;5059739;28;21025;-49
2022/01/23 09:35:12;;;;;;;23.10;15.77;;;7.00;99.90;;;;;;5063853;28;20429;-48
2022/01/23 09:37:38;;;;;;;26.50;16.40;;;7.10;99.90;;;;;;5061097;28;20421;-49
2022/01/23 09:40:05;;;;;;;23.80;15.33;;;7.20;99.90;;;;;;5063626;28;20473;-47
2022/01/23 09:42:42;;;;;;;26.27;17.77;;;7.00;99.90;;;;;;5062697;28;20228;-51
2022/01/23 09:45:10;;;;;;;24.90;16.50;;;7.10;99.90;;;;;;5059878;28;20432;-48
2022/01/23 09:47:40;;;;;;;24.70;15.33;;;7.20;99.90;;;;;;5064330;28;20571;-50
2022/01/23 09:50:09;;;;;;;24.63;17.10;;;7.30;99.90;;;;;;5059505;28;20966;-49
2022/01/23 09:52:36;;;;;;;24.93;17.17;;;7.40;99.90;;;;;;5060941;28;20475;-50
2022/01/23 09:55:10;;;;;;;27.77;17.37;;;7.60;99.90;;;;;;5060304;28;20429;-50
2022/01/23 09:57:47;;;;;;;25.33;16.77;;;7.70;99.90;;;;;;5058518;28;20453;-52
2022/01/23 10:00:24;;;;;;;26.10;16.83;;;7.50;99.90;;;;;;5063713;28;20917;-53
2022/01/23 10:02:50;;;;;;;30.57;17.90;;;7.50;99.90;;;;;;5062079;28;20945;-50
2022/01/23 10:05:17;;;;;;;33.20;17.83;;;7.40;99.90;;;;;;5060401;28;20468;-49
2022/01/23 10:07:44;;;;;;;26.90;18.03;;;7.40;99.90;;;;;;5066259;28;20445;-51
2022/01/23 10:10:18;;;;;;;25.90;17.50;;;7.50;99.90;;;;;;5059289;28;20489;-48
2022/01/23 10:12:47;;;;;;;29.33;18.60;;;7.50;99.90;;;;;;5045588;28;20989;-52
2022/01/23 10:15:13;;;;;;;28.03;17.63;;;7.10;99.90;;;;;;5060465;28;20449;-51
2022/01/23 10:17:40;;;;;;;27.40;18.67;;;7.30;99.90;;;;;;5060825;28;20425;-50
2022/01/23 10:20:07;;;;;;;27.60;17.97;;;7.20;99.90;;;;;;5059978;28;20441;-50
2022/01/23 10:22:36;;;;;;;27.07;18.07;;;7.40;99.90;;;;;;5060116;28;20451;-50
2022/01/23 10:25:09;;;;;;;29.23;19.23;;;7.40;99.90;;;;;;5062025;28;20421;-50
2022/01/23 10:27:56;;;;;;;26.50;18.00;;;7.70;99.90;;;;;;5060893;28;20426;-48
2022/01/23 10:30:24;;;;;;;28.73;19.43;;;7.60;99.90;;;;;;5058937;28;20871;-53
2022/01/23 10:33:03;;;;;;;33.27;21.57;;;7.70;99.90;;;;;;5064294;28;20457;-51
2022/01/23 10:35:30;;;;;;;28.23;19.10;;;7.70;99.90;;;;;;5056168;28;20437;-51
2022/01/23 10:37:56;;;;;;;31.03;19.70;;;7.80;99.90;;;;;;5062624;28;20430;-49
2022/01/23 10:40:25;;;;;;;32.10;19.10;;;8.00;99.90;;;;;;5061792;28;20953;-49
2022/01/23 10:48:25;;;;;;;30.83;18.50;;;8.10;99.90;;;;;;5060366;28;20463;-49
2022/01/23 10:50:52;;;;;;;29.87;19.47;;;8.20;99.90;;;;;;5056832;28;20456;-48
2022/01/23 10:53:18;;;;;;;31.77;20.30;;;8.20;99.90;;;;;;5063536;28;20821;-52
2022/01/23 10:55:45;;;;;;;33.50;21.17;;;8.30;99.90;;;;;;5057170;28;20427;-48
2022/01/23 10:58:24;;;;;;;39.93;19.47;;;8.30;99.90;;;;;;5060217;28;20452;-49
2022/01/23 11:00:50;;;;;;;31.80;21.57;;;8.20;99.90;;;;;;5062695;28;20511;-49
2022/01/23 11:03:20;;;;;;;29.53;19.90;;;8.30;99.90;;;;;;5059292;28;20950;-50
2022/01/23 11:05:48;;;;;;;30.57;19.10;;;8.20;99.90;;;;;;5062131;28;20441;-51
2022/01/23 11:08:31;;;;;;;30.90;19.67;;;8.30;99.90;;;;;;5060267;28;20494;-49
2022/01/23 11:11:08;;;;;;;27.83;17.63;;;8.40;99.90;;;;;;5061272;28;20436;-49
2022/01/23 11:19:21;;;;;;;27.30;17.73;;;8.40;99.90;;;;;;5060466;28;20811;-48
2022/01/23 11:21:47;;;;;;;29.80;19.50;;;8.50;99.90;;;;;;5061566;28;20478;-48
2022/01/23 11:24:13;;;;;;;30.47;18.50;;;8.20;99.90;;;;;;5056397;28;20524;-49
2022/01/23 11:26:40;;;;;;;32.53;19.10;;;8.30;99.90;;;;;;5064072;28;20417;-53
2022/01/23 11:29:15;;;;;;;34.60;18.80;;;8.40;99.90;;;;;;5057732;28;20213;-50
2022/01/23 11:31:43;;;;;;;34.03;17.60;;;8.40;99.90;;;;;;5060802;28;20445;-48
2022/01/23 11:34:10;;;;;;;34.50;18.97;;;8.30;99.90;;;;;;5058674;28;20471;-51
2022/01/23 11:36:36;;;;;;;28.87;17.67;;;8.40;99.90;;;;;;5060510;28;20428;-49
2022/01/23 11:39:19;;;;;;;26.63;17.43;;;8.30;99.90;;;;;;5062115;28;20457;-50
2022/01/23 11:59:12;;;;;;;23.73;16.47;;;8.60;99.90;;;;;;5058784;28;20445;-51
2022/01/23 12:01:39;;;;;;;27.40;17.80;;;8.60;99.90;;;;;;5040776;28;20433;-50
2022/01/23 12:04:33;;;;;;;29.73;18.23;;;8.80;99.90;;;;;;5060689;28;20426;-50
2022/01/23 12:07:12;;;;;;;25.57;17.07;;;8.70;99.90;;;;;;5059483;28;20437;-50
2022/01/23 12:09:43;;;;;;;28.67;18.53;;;8.80;99.90;;;;;;5059232;28;20489;-48
2022/01/23 12:12:36;;;;;;;26.43;17.80;;;8.90;99.90;;;;;;5060054;28;20791;-50
2022/01/23 12:18:22;;;;;;;28.33;17.43;;;8.90;99.90;;;;;;5062709;28;21032;-48
2022/01/23 12:20:50;;;;;;;24.23;15.80;;;8.80;99.90;;;;;;5068596;28;20449;-50
2022/01/23 12:23:17;;;;;;;29.33;18.00;;;8.80;99.90;;;;;;5061302;28;20477;-48
2022/01/23 12:25:52;;;;;;;26.67;17.40;;;8.90;99.90;;;;;;5063395;28;20810;-54
2022/01/23 12:28:21;;;;;;;28.70;18.93;;;8.90;99.90;;;;;;5062966;28;20445;-54
2022/01/23 12:30:51;;;;;;;24.67;16.80;;;8.90;99.90;;;;;;5061574;28;20436;-48
2022/01/23 12:33:19;;;;;;;29.60;19.23;;;9.00;99.90;;;;;;5066335;28;20969;-49
2022/01/23 12:35:51;;;;;;;30.77;19.53;;;9.20;99.90;;;;;;5062030;28;20449;-48
2022/01/23 12:38:18;;;;;;;28.67;18.37;;;9.10;99.90;;;;;;5060818;28;20421;-50
2022/01/23 12:40:47;;;;;;;24.57;16.53;;;9.10;99.90;;;;;;5063637;28;20810;-54
2022/01/23 12:43:24;;;;;;;24.77;17.63;;;9.00;99.90;;;;;;5058810;28;20421;-49
2022/01/23 12:46:06;;;;;;;24.90;17.30;;;9.00;99.90;;;;;;5061186;28;20441;-52
2022/01/23 12:48:32;;;;;;;32.03;18.80;;;9.00;99.90;;;;;;5062471;28;21058;-54
2022/01/23 12:51:05;;;;;;;27.67;17.50;;;9.00;99.90;;;;;;5065206;28;20453;-49
2022/01/23 12:53:46;;;;;;;23.30;16.20;;;9.10;99.90;;;;;;5062361;28;20510;-51
2022/01/23 12:56:23;;;;;;;26.47;17.17;;;9.20;99.90;;;;;;5060552;28;20799;-50
2022/01/23 12:59:04;;;;;;;27.10;17.33;;;9.30;99.90;;;;;;5066092;28;20471;-52
2022/01/23 13:01:30;;;;;;;26.50;18.33;;;9.20;99.90;;;;;;5065971;28;20487;-51
2022/01/23 13:03:58;;;;;;;29.17;18.50;;;9.30;99.90;;;;;;5045846;28;20477;-50
2022/01/23 13:06:37;;;;;;;25.20;17.83;;;9.20;99.90;;;;;;5064207;28;20194;-48
2022/01/23 13:09:39;;;;;;;29.47;17.80;;;9.20;99.90;;;;;;5061439;28;20519;-52
2022/01/23 13:15:15;;;;;;;22.77;16.90;;;9.20;99.90;;;;;;5063429;28;20452;-48
2022/01/23 13:35:07;;;;;;;22.10;15.20;;;10.30;99.90;;;;;;5062311;28;20774;-51
2022/01/23 13:37:36;;;;;;;21.73;14.87;;;10.40;99.90;;;;;;5061534;28;20643;-51
2022/01/23 13:40:07;;;;;;;19.27;13.27;;;10.40;99.90;;;;;;5062921;28;20445;-49
2022/01/23 13:42:48;;;;;;;23.47;15.47;;;10.40;99.90;;;;;;5058600;28;20779;-52
2022/01/23 13:48:37;;;;;;;19.27;13.73;;;10.10;99.90;;;;;;5064492;28;20476;-49
2022/01/23 14:02:26;;;;;;;21.90;13.87;;;9.90;99.90;;;;;;5061286;28;20418;-50
2022/01/23 14:04:54;;;;;;;20.67;13.93;;;10.00;99.90;;;;;;5052066;28;20799;-49
2022/01/23 14:07:26;;;;;;;25.93;17.10;;;9.70;99.90;;;;;;5058716;28;20436;-49
2022/01/23 14:10:08;;;;;;;20.73;15.90;;;9.80;99.90;;;;;;5060488;28;20449;-51
2022/01/23 14:12:33;;;;;;;21.73;15.53;;;9.80;99.90;;;;;;5062476;28;20449;-48
2022/01/23 14:15:05;;;;;;;24.00;13.50;;;9.80;99.90;;;;;;5061622;28;20729;-53
2022/01/23 14:17:36;;;;;;;18.27;13.50;;;9.80;99.90;;;;;;5062362;28;20179;-50
2022/01/23 14:20:16;;;;;;;17.53;13.00;;;9.80;99.90;;;;;;5059546;28;20664;-51
2022/01/23 14:22:46;;;;;;;28.80;17.80;;;9.60;99.90;;;;;;5059015;28;20436;-49
2022/01/23 14:25:19;;;;;;;26.00;15.90;;;9.60;99.90;;;;;;5061519;28;20422;-51
2022/01/23 14:28:20;;;;;;;24.57;15.50;;;9.60;99.90;;;;;;5058888;28;20937;-50
2022/01/23 14:30:51;;;;;;;25.63;16.50;;;9.50;99.90;;;;;;5007748;28;21328;-48
2022/01/23 14:33:23;;;;;;;23.90;14.90;;;9.30;99.90;;;;;;5061658;28;20961;-52
2022/01/23 14:35:50;;;;;;;23.07;14.40;;;9.30;99.90;;;;;;5055283;28;20440;-51
2022/01/23 14:38:19;;;;;;;21.87;14.53;;;9.30;99.90;;;;;;5062504;28;20421;-52
2022/01/23 14:41:02;;;;;;;24.93;15.97;;;9.30;99.90;;;;;;5062901;28;20455;-48
2022/01/23 14:43:34;;;;;;;26.67;17.57;;;9.40;99.90;;;;;;5062712;28;20425;-47
2022/01/23 14:46:03;;;;;;;24.43;15.93;;;9.20;99.90;;;;;;5050270;28;20448;-50
2022/01/23 14:48:29;;;;;;;21.07;15.17;;;9.30;99.90;;;;;;5057502;28;20915;-49
2022/01/23 14:50:56;;;;;;;17.87;12.23;;;9.20;99.90;;;;;;5063670;28;20419;-50
2022/01/23 14:53:24;;;;;;;18.43;13.40;;;9.40;99.90;;;;;;5059299;28;20214;-48
2022/01/23 14:55:56;;;;;;;20.63;13.63;;;9.20;99.90;;;;;;5058925;28;20425;-49
2022/01/23 14:58:24;;;;;;;18.60;13.23;;;9.10;99.90;;;;;;5046907;28;20422;-52
2022/01/23 15:00:52;;;;;;;15.60;10.47;;;9.30;99.90;;;;;;5060191;28;20429;-50
2022/01/23 15:03:19;;;;;;;15.20;11.00;;;9.30;99.90;;;;;;5062865;28;20828;-48
2022/01/23 15:05:45;;;;;;;19.00;11.40;;;9.40;99.90;;;;;;5056151;28;20949;-53
2022/01/23 15:08:13;;;;;;;18.50;11.70;;;9.40;99.90;;;;;;5062526;28;20436;-50
2022/01/23 15:10:42;;;;;;;19.60;13.00;;;9.30;99.90;;;;;;5061737;28;20836;-50
2022/01/23 15:13:08;;;;;;;15.93;11.50;;;9.20;99.90;;;;;;5057451;28;20532;-49
2022/01/23 15:15:35;;;;;;;17.27;10.63;;;9.20;99.90;;;;;;5063228;28;20795;-50
2022/01/23 15:18:01;;;;;;;14.73;9.90;;;9.20;99.90;;;;;;5058686;28;20429;-48
2022/01/23 15:20:27;;;;;;;12.70;9.90;;;9.10;99.90;;;;;;5063205;28;20460;-48
2022/01/23 15:22:52;;;;;;;13.80;9.40;;;9.00;99.90;;;;;;5061136;28;20950;-48
2022/01/23 15:25:19;;;;;;;13.97;9.60;;;8.90;99.90;;;;;;5057757;28;20430;-48
2022/01/23 15:27:46;;;;;;;13.27;9.13;;;8.90;99.90;;;;;;5063965;28;20418;-49
2022/01/23 15:30:16;;;;;;;31.23;19.07;;;8.80;99.90;;;;;;5056411;28;20461;-52
2022/01/23 15:32:43;;;;;;;19.13;12.60;;;8.60;99.90;;;;;;5062677;28;20458;-50
2022/01/23 15:35:09;;;;;;;14.50;10.37;;;8.70;99.90;;;;;;5039972;28;20547;-52
2022/01/23 15:37:34;;;;;;;16.03;10.57;;;8.80;99.90;;;;;;5060611;28;20512;-50
2022/01/23 15:40:00;;;;;;;16.07;12.20;;;8.90;99.90;;;;;;5060837;28;20429;-48
2022/01/23 15:42:26;;;;;;;17.50;12.60;;;8.90;99.90;;;;;;5055875;28;20191;-50
2022/01/23 15:44:52;;;;;;;9.60;7.63;;;8.90;99.90;;;;;;5060323;28;20517;-51
2022/01/23 15:47:17;;;;;;;10.20;7.40;;;8.80;99.90;;;;;;5061823;28;20227;-50
2022/01/23 15:49:43;;;;;;;9.30;6.60;;;8.80;99.90;;;;;;5060710;28;20210;-50
2022/01/23 15:52:10;;;;;;;9.80;6.70;;;8.90;99.90;;;;;;5058959;28;20557;-48
2022/01/23 15:54:35;;;;;;;9.53;6.97;;;8.80;99.90;;;;;;5059159;28;20180;-51
2022/01/23 15:57:02;;;;;;;10.80;7.57;;;8.80;99.90;;;;;;5064006;28;20417;-48
2022/01/23 15:59:28;;;;;;;10.30;6.57;;;8.80;99.90;;;;;;5060076;28;20573;-52
2022/01/23 16:01:54;;;;;;;13.67;8.60;;;8.80;99.90;;;;;;5062110;28;20427;-48
2022/01/23 16:04:21;;;;;;;10.60;7.57;;;8.70;99.90;;;;;;5059939;28;20741;-51
2022/01/23 16:06:48;;;;;;;10.63;7.67;;;8.60;99.90;;;;;;5060948;28;20663;-49
2022/01/23 16:09:14;;;;;;;15.10;9.10;;;8.70;99.90;;;;;;5059207;28;20877;-48
2022/01/23 16:11:41;;;;;;;11.10;7.80;;;8.70;99.90;;;;;;5057438;28;20961;-50
2022/01/23 16:14:07;;;;;;;11.20;8.20;;;8.70;99.90;;;;;;5060273;28;20466;-48
2022/01/23 16:16:32;;;;;;;9.60;6.20;;;8.70;99.90;;;;;;5058473;28;20435;-50
2022/01/23 16:18:58;;;;;;;10.27;6.77;;;8.60;99.90;;;;;;5059723;28;20454;-49